Hovedside
METAR-TAF:

METAR-TAF

Lufthavner :

Banjarmasin, Indonesia

breddegrad: 03-26-32S, lengdegrad: 114-45-45E, høyde over havet: 20 m

Gjeldene værobservasjon

Denne rapporten ble laget for 51 minutter siden, klokken 14:30 UTC
Flau vind
Temperatur 25°C
Luftfuktighet 94%
Trykk 1012 hPa
Sikt: 9000 m
Spredte skyer i en høyde av 1700 ft

METAR: WAOO 121430Z 00000KT 9000 SCT017 25/24 Q1012 NOSIG

Tid: 22:21 (15:21 UTC)

Varsel

Denne rapporten ble laget for 4 timer og 21 minutter siden, klokken 11:00 UTC
Varsel gyldig fra 12. klokken 12 UTC til 13. klokken 12 UTC
Vind 6 kt fra Øst-sørøst
Sikt 10 km eller mer
Spredte skyer i en høyde av 1700 ft
Midlertidig
fra 12. klokken 12 UTC til 12. klokken 16 UTC
Sikt: 5000 m
regn,

TAF: WAOO 121100Z 1212/1312 12006KT 9999 SCT017 TEMPO 1212/1216 5000 RA

Værobservasjoner og værvarsel for over 4000 flyplasser (METAR- og TAF-rapporter).

Tilgjengelige stasjoner er representert av de røde og gule prikkene på kartet.

Hold musepekeren over prikken for å se navnet på stasjonen.

Klikk så for å se værobservasjoner og -varsler.

For å forandre kartet kan du klikke på den grønne knappen med svart kryss for å zoome inn, på den grønne knappen med strek for å zoome ut, eller på de grønne pilene for å se tilstøtende kart.


METAR-TAF: